createdAt,value
2022-10-19T00:01:29.743Z,99364.93
2022-10-19T00:04:03.535Z,99362.19
2022-10-19T00:06:37.987Z,99367.20
2022-10-19T00:09:10.246Z,99365.66
2022-10-19T00:11:42.995Z,99361.00
2022-10-19T00:14:15.226Z,99360.66
2022-10-19T00:16:47.137Z,99357.89
2022-10-19T00:19:19.558Z,99364.66
2022-10-19T00:24:25.657Z,99357.93
2022-10-19T00:26:56.301Z,99355.70
2022-10-19T00:29:26.826Z,99353.65
2022-10-19T00:31:57.275Z,99351.77
2022-10-19T00:34:28.133Z,99350.55
2022-10-19T00:36:58.522Z,99352.29
2022-10-19T00:39:28.959Z,99351.77
2022-10-19T00:41:59.436Z,99353.17
2022-10-19T00:45:05.349Z,99352.14
2022-10-19T00:47:36.564Z,99352.48
2022-10-19T00:50:08.476Z,99354.74
2022-10-19T00:52:39.136Z,99354.05
2022-10-19T00:55:10.648Z,99355.07
2022-10-19T00:57:42.078Z,99353.85
2022-10-19T01:00:13.777Z,99348.98
2022-10-19T01:02:44.229Z,99346.56
2022-10-19T01:05:14.970Z,99346.90
2022-10-19T01:07:45.395Z,99346.53
2022-10-19T01:10:15.848Z,99344.59
2022-10-19T01:13:03.433Z,99343.16
2022-10-19T01:15:41.739Z,99341.92
2022-10-19T01:18:19.542Z,99338.78
2022-10-19T01:21:26.066Z,99340.51
2022-10-19T01:24:18.410Z,99337.55
2022-10-19T01:27:04.010Z,99341.54
2022-10-19T01:29:44.826Z,99339.43
2022-10-19T01:32:20.404Z,99342.36
2022-10-19T01:34:54.052Z,99340.61
2022-10-19T01:37:33.091Z,99338.33
2022-10-19T01:40:08.909Z,99337.45
2022-10-19T01:42:45.742Z,99336.86
2022-10-19T01:45:19.931Z,99336.49
2022-10-19T01:47:55.272Z,99332.86
2022-10-19T01:50:29.070Z,99331.98
2022-10-19T01:53:00.245Z,99330.78
2022-10-19T01:55:31.709Z,99330.27
2022-10-19T01:58:08.311Z,99328.71
2022-10-19T02:00:42.716Z,99327.84
2022-10-19T02:03:14.613Z,99331.81
2022-10-19T02:05:46.716Z,99327.48
2022-10-19T02:08:21.586Z,99327.65
2022-10-19T02:10:52.126Z,99330.96
2022-10-19T02:13:23.519Z,99329.39
2022-10-19T02:15:56.182Z,99329.91
2022-10-19T02:18:30.090Z,99327.63
2022-10-19T02:21:01.417Z,99326.71
2022-10-19T02:23:32.003Z,99324.95
2022-10-19T02:26:02.427Z,99322.66
2022-10-19T02:28:33.279Z,99321.05
2022-10-19T02:31:04.345Z,99317.15
2022-10-19T02:33:34.803Z,99313.61
2022-10-19T02:36:05.951Z,99308.53
2022-10-19T02:38:36.427Z,99310.73
2022-10-19T02:41:09.700Z,99313.15
2022-10-19T02:43:42.320Z,99311.05
2022-10-19T02:46:16.773Z,99305.07
2022-10-19T02:48:47.756Z,99300.35
2022-10-19T02:51:31.760Z,99298.41
2022-10-19T02:54:05.090Z,99296.83
2022-10-19T02:56:36.368Z,99295.77
2022-10-19T02:59:06.876Z,99294.17
2022-10-19T03:01:37.278Z,99290.36
2022-10-19T03:04:07.797Z,99291.27
2022-10-19T03:06:38.212Z,99287.67
2022-10-19T03:09:08.630Z,99290.33
2022-10-19T03:11:39.103Z,99283.27
2022-10-19T03:14:09.772Z,99284.50
2022-10-19T03:16:40.268Z,99285.05
2022-10-19T03:19:10.691Z,99282.47
2022-10-19T03:21:41.115Z,99281.29
2022-10-19T03:24:11.502Z,99280.48
2022-10-19T03:26:41.910Z,99278.83
2022-10-19T03:29:12.313Z,99276.66
2022-10-19T03:31:42.699Z,99277.98
2022-10-19T03:34:13.130Z,99276.84
2022-10-19T03:36:44.289Z,99277.60
2022-10-19T03:39:16.154Z,99275.93
2022-10-19T03:41:46.766Z,99274.94
2022-10-19T03:44:17.223Z,99277.40
2022-10-19T03:46:47.669Z,99273.27
2022-10-19T03:49:18.126Z,99278.34
2022-10-19T03:51:48.508Z,99278.39
2022-10-19T03:54:20.648Z,99274.42
2022-10-19T03:56:54.058Z,99272.70
2022-10-19T03:59:25.123Z,99279.83
2022-10-19T04:01:55.598Z,99280.72
2022-10-19T04:04:27.164Z,99282.98
2022-10-19T04:07:01.943Z,99286.27
2022-10-19T04:09:33.783Z,99288.55
2022-10-19T04:12:06.392Z,99283.21
2022-10-19T04:14:52.553Z,99285.86
2022-10-19T04:17:28.962Z,99288.15
2022-10-19T04:19:58.756Z,99286.45
2022-10-19T04:22:30.406Z,99284.41
2022-10-19T04:25:01.873Z,99283.73
2022-10-19T04:27:36.404Z,99288.61
2022-10-19T04:30:08.637Z,99288.97
2022-10-19T04:32:39.058Z,99288.45
2022-10-19T04:35:10.533Z,99286.70
2022-10-19T04:37:40.917Z,99281.84
2022-10-19T04:40:15.158Z,99282.51
2022-10-19T04:42:45.781Z,99280.93
2022-10-19T04:45:16.366Z,99282.83
2022-10-19T04:47:46.742Z,99282.30
2022-10-19T04:50:17.222Z,99280.35
2022-10-19T04:52:47.969Z,99284.51
2022-10-19T04:55:18.711Z,99282.95
2022-10-19T04:57:49.080Z,99286.41
2022-10-19T05:00:20.264Z,99284.68
2022-10-19T05:02:50.666Z,99282.24
2022-10-19T05:05:21.116Z,99282.60
2022-10-19T05:07:52.591Z,99281.60
2022-10-19T05:10:23.196Z,99285.59
2022-10-19T05:12:53.955Z,99287.52
2022-10-19T05:15:24.451Z,99284.26
2022-10-19T05:17:54.881Z,99280.64
2022-10-19T05:20:25.440Z,99280.12
2022-10-19T05:22:55.895Z,99278.55
2022-10-19T05:25:26.341Z,99281.12
2022-10-19T05:27:56.786Z,99284.39
2022-10-19T05:30:28.282Z,99279.52
2022-10-19T05:32:58.802Z,99276.38
2022-10-19T05:35:29.150Z,99272.73
2022-10-19T05:37:59.521Z,99273.05
2022-10-19T05:40:30.008Z,99271.28
2022-10-19T05:43:00.382Z,99270.58
2022-10-19T05:45:30.681Z,99270.23
2022-10-19T05:48:01.413Z,99270.05
2022-10-19T05:50:31.747Z,99266.23
2022-10-19T05:53:02.130Z,99265.52
2022-10-19T05:55:37.141Z,99274.66
2022-10-19T05:58:07.550Z,99272.74
2022-10-19T06:00:38.215Z,99278.61
2022-10-19T06:03:08.597Z,99278.95
2022-10-19T06:05:39.642Z,99279.11
2022-10-19T06:08:10.117Z,99277.73
2022-10-19T06:10:40.486Z,99278.23
2022-10-19T06:13:11.347Z,99278.54
2022-10-19T06:15:41.750Z,99274.50
2022-10-19T06:18:13.377Z,99273.61
2022-10-19T06:20:44.436Z,99271.14
2022-10-19T06:23:14.808Z,99270.77
2022-10-19T06:25:45.469Z,99276.94
2022-10-19T06:28:15.907Z,99276.98
2022-10-19T06:30:46.423Z,99273.24
2022-10-19T06:33:16.792Z,99276.77
2022-10-19T06:35:47.213Z,99273.70
2022-10-19T06:38:18.044Z,99273.08
2022-10-19T06:40:50.263Z,99274.02
2022-10-19T06:43:24.710Z,99281.04
2022-10-19T06:45:56.085Z,99282.66
2022-10-19T06:54:25.684Z,99287.92
2022-10-19T06:56:56.554Z,99285.27
2022-10-19T06:59:28.259Z,99282.75
2022-10-19T07:01:59.780Z,99285.09
2022-10-19T07:04:32.218Z,99291.48
2022-10-19T07:07:03.211Z,99290.59
2022-10-19T07:09:34.485Z,99290.23
2022-10-19T07:12:05.946Z,99287.98
2022-10-19T07:14:39.741Z,99289.86
2022-10-19T07:17:11.360Z,99290.53
2022-10-19T07:19:43.015Z,99291.92
2022-10-19T07:22:19.706Z,99294.67
2022-10-19T07:24:53.516Z,99298.64
2022-10-19T07:27:24.234Z,99292.67
2022-10-19T07:29:55.630Z,99291.56
2022-10-19T07:32:27.287Z,99291.17
2022-10-19T07:34:58.868Z,99292.32
2022-10-19T07:37:33.103Z,99292.90
2022-10-19T07:40:05.541Z,99292.02
2022-10-19T07:42:37.761Z,99297.11
2022-10-19T07:45:09.677Z,99304.14
2022-10-19T07:47:39.982Z,99305.78
2022-10-19T07:50:11.162Z,99304.45
2022-10-19T07:52:41.834Z,99302.48
2022-10-19T07:55:12.600Z,99304.42
2022-10-19T07:57:44.952Z,99301.67
2022-10-19T08:00:17.037Z,99302.88
2022-10-19T08:03:12.139Z,99301.17
2022-10-19T08:05:38.132Z,99302.67
2022-10-19T08:08:08.766Z,99309.27
2022-10-19T08:10:39.230Z,99309.86
2022-10-19T08:13:09.919Z,99309.50
2022-10-19T08:15:40.370Z,99312.60
2022-10-19T08:18:11.405Z,99311.48
2022-10-19T08:20:44.117Z,99308.60
2022-10-19T08:23:12.971Z,99306.39
2022-10-19T08:25:43.378Z,99301.16
2022-10-19T08:28:13.862Z,99299.41
2022-10-19T08:30:44.675Z,99296.93
2022-10-19T08:33:15.228Z,99291.39
2022-10-19T08:35:45.596Z,99291.92
2022-10-19T08:38:16.041Z,99294.75
2022-10-19T08:40:47.409Z,99291.58
2022-10-19T08:43:22.909Z,99284.14
2022-10-19T08:46:01.623Z,99284.70
2022-10-19T08:48:38.609Z,99282.96
2022-10-19T08:51:12.168Z,99284.16
2022-10-19T08:53:53.186Z,99284.55
2022-10-19T08:56:49.778Z,99280.40
2022-10-19T08:59:31.152Z,99286.77
2022-10-19T09:02:10.645Z,99283.29
2022-10-19T09:04:46.811Z,99279.52
2022-10-19T09:07:28.331Z,99278.81
2022-10-19T09:10:01.579Z,99275.36
2022-10-19T09:12:46.180Z,99276.21
2022-10-19T09:15:19.835Z,99273.95
2022-10-19T09:17:51.318Z,99269.42
2022-10-19T09:20:26.648Z,99269.38
2022-10-19T09:23:07.698Z,99267.96
2022-10-19T09:25:52.371Z,99273.77
2022-10-19T09:28:38.975Z,99270.33
2022-10-19T09:31:14.951Z,99267.08
2022-10-19T09:33:49.757Z,99265.64
2022-10-19T09:39:07.012Z,99261.34
2022-10-19T09:41:47.599Z,99267.28
2022-10-19T09:44:19.818Z,99268.31
2022-10-19T09:46:52.223Z,99272.69
2022-10-19T09:49:41.736Z,99275.28
2022-10-19T09:52:33.133Z,99278.61
2022-10-19T09:55:04.864Z,99274.44
2022-10-19T09:57:36.085Z,99269.17
2022-10-19T10:00:07.789Z,99269.86
2022-10-19T10:02:38.526Z,99266.47
2022-10-19T10:05:11.663Z,99269.09
2022-10-19T10:07:42.846Z,99270.70
2022-10-19T10:10:25.651Z,99274.50
2022-10-19T10:13:00.066Z,99266.61
2022-10-19T10:15:32.020Z,99266.10
2022-10-19T10:18:02.425Z,99265.05
2022-10-19T10:20:33.572Z,99268.23
2022-10-19T10:23:06.218Z,99268.91
2022-10-19T10:25:37.701Z,99272.23
2022-10-19T10:28:20.987Z,99270.33
2022-10-19T10:30:56.426Z,99264.73
2022-10-19T10:33:40.671Z,99261.31
2022-10-19T10:36:15.091Z,99259.59
2022-10-19T10:38:48.334Z,99257.60
2022-10-19T10:41:22.994Z,99255.95
2022-10-19T10:44:05.032Z,99249.88
2022-10-19T10:46:43.117Z,99250.95
2022-10-19T10:49:22.175Z,99244.09
2022-10-19T10:52:19.916Z,99240.45
2022-10-19T10:55:06.758Z,99239.89
2022-10-19T10:57:45.045Z,99240.79
2022-10-19T11:00:21.528Z,99242.16
2022-10-19T11:03:25.519Z,99243.55
2022-10-19T11:05:59.264Z,99235.98
2022-10-19T11:08:35.405Z,99236.09
2022-10-19T11:11:14.121Z,99230.88
2022-10-19T11:13:58.150Z,99232.19
2022-10-19T11:16:32.871Z,99227.13
2022-10-19T11:19:16.107Z,99220.17
2022-10-19T11:21:51.820Z,99219.28
2022-10-19T11:27:16.327Z,99214.85
2022-10-19T11:29:50.885Z,99214.02
2022-10-19T11:32:30.434Z,99205.70
2022-10-19T11:35:12.254Z,99203.08
2022-10-19T11:37:50.094Z,99198.95
2022-10-19T11:40:54.230Z,99197.05
2022-10-19T11:43:38.795Z,99191.52
2022-10-19T11:46:17.096Z,99191.98
2022-10-19T11:49:10.551Z,99190.52
2022-10-19T11:51:45.954Z,99189.14
2022-10-19T11:54:28.466Z,99183.95
2022-10-19T11:57:05.556Z,99179.52
2022-10-19T11:59:46.929Z,99176.19
2022-10-19T12:02:40.507Z,99169.48
2022-10-19T12:05:13.210Z,99166.91
2022-10-19T12:08:01.486Z,99163.10
2022-10-19T12:10:38.133Z,99160.35
2022-10-19T12:13:13.600Z,99158.38
2022-10-19T12:15:45.816Z,99160.59
2022-10-19T12:18:15.638Z,99158.55
2022-10-19T12:20:49.946Z,99158.91
2022-10-19T12:23:33.410Z,99155.42
2022-10-19T12:26:06.728Z,99152.62
2022-10-19T12:28:39.474Z,99144.27
2022-10-19T12:31:11.809Z,99143.86
2022-10-19T12:33:48.567Z,99137.63
2022-10-19T12:36:27.903Z,99135.29
2022-10-19T12:39:04.117Z,99132.66
2022-10-19T12:41:40.289Z,99126.82
2022-10-19T12:44:22.042Z,99123.98
2022-10-19T12:46:58.780Z,99116.73
2022-10-19T12:49:56.162Z,99117.67
2022-10-19T12:53:02.349Z,99123.58
2022-10-19T12:55:36.932Z,99122.86
2022-10-19T12:58:26.859Z,99116.79
2022-10-19T13:01:05.289Z,99112.99
2022-10-19T13:04:27.912Z,99107.36
2022-10-19T13:07:24.329Z,99102.69
2022-10-19T13:10:06.920Z,99109.11
2022-10-19T13:12:51.602Z,99109.27
2022-10-19T13:15:56.839Z,99101.16
2022-10-19T13:19:09.089Z,99098.59
2022-10-19T13:27:40.788Z,99093.06
2022-10-19T13:36:12.536Z,99088.38
2022-10-19T13:38:45.948Z,99084.94
2022-10-19T13:41:24.463Z,99078.29
2022-10-19T13:44:06.834Z,99083.20
2022-10-19T13:46:52.099Z,99082.12
2022-10-19T13:49:36.598Z,99079.00
2022-10-19T13:52:46.838Z,99074.06
2022-10-19T13:55:32.482Z,99071.73
2022-10-19T13:58:17.011Z,99071.58
2022-10-19T14:01:05.433Z,99063.98
2022-10-19T14:04:04.477Z,99062.91
2022-10-19T14:06:37.575Z,99057.70
2022-10-19T14:09:32.686Z,99061.17
2022-10-19T14:12:07.508Z,99054.86
2022-10-19T14:14:48.388Z,99058.67
2022-10-19T14:17:20.874Z,99057.92
2022-10-19T14:19:53.720Z,99056.37
2022-10-19T14:22:25.850Z,99054.38
2022-10-19T14:25:03.276Z,99055.60
2022-10-19T14:27:34.429Z,99056.02
2022-10-19T14:30:06.310Z,99054.38
2022-10-19T14:32:36.992Z,99048.40
2022-10-19T14:35:21.401Z,99048.39
2022-10-19T14:37:52.472Z,99043.16
2022-10-19T14:40:28.688Z,99041.30
2022-10-19T14:43:00.191Z,99042.70
2022-10-19T14:45:32.861Z,99042.42
2022-10-19T14:48:05.251Z,99041.36
2022-10-19T14:50:42.654Z,99041.36
2022-10-19T14:53:35.132Z,99036.58
2022-10-19T14:56:10.262Z,99031.99
2022-10-19T15:03:16.871Z,99044.11
2022-10-19T15:05:56.687Z,99043.23
2022-10-19T15:08:37.784Z,99038.02
2022-10-19T15:11:09.729Z,99034.32
2022-10-19T15:13:43.694Z,99029.06
2022-10-19T15:16:35.506Z,99025.46
2022-10-19T15:19:18.335Z,99014.88
2022-10-19T15:21:49.592Z,99014.05
2022-10-19T15:24:28.197Z,99011.28
2022-10-19T15:27:10.086Z,99005.41
2022-10-19T15:29:41.169Z,98998.98
2022-10-19T15:32:20.488Z,98995.15
2022-10-19T15:34:51.981Z,98993.85
2022-10-19T15:46:10.162Z,98989.02
2022-10-19T15:51:51.318Z,98986.41
2022-10-19T15:54:24.387Z,98993.27
2022-10-19T15:56:56.440Z,98996.65
2022-10-19T15:59:26.906Z,98996.62
2022-10-19T16:01:57.628Z,98995.76
2022-10-19T16:04:28.177Z,98993.40
2022-10-19T16:06:58.800Z,98987.84
2022-10-19T16:09:29.555Z,98982.69
2022-10-19T16:17:58.651Z,98982.77
2022-10-19T16:20:31.622Z,98976.39
2022-10-19T16:23:02.124Z,98982.70
2022-10-19T16:25:32.467Z,98982.64
2022-10-19T16:28:02.924Z,98982.53
2022-10-19T16:30:33.409Z,98980.58
2022-10-19T16:33:03.838Z,98980.89
2022-10-19T16:35:34.277Z,98983.60
2022-10-19T16:38:04.766Z,98977.92
2022-10-19T16:40:35.327Z,98980.70
2022-10-19T16:43:06.180Z,98984.52
2022-10-19T16:45:36.727Z,98981.09
2022-10-19T16:48:07.870Z,98981.58
2022-10-19T16:50:38.355Z,98975.29
2022-10-19T16:53:11.071Z,98981.22
2022-10-19T16:55:42.612Z,98980.23
2022-10-19T16:58:13.934Z,98981.87
2022-10-19T17:00:45.180Z,98975.85
2022-10-19T17:03:16.226Z,98974.14
2022-10-19T17:05:47.754Z,98974.33
2022-10-19T17:08:21.621Z,98974.36
2022-10-19T17:10:52.732Z,98969.73
2022-10-19T17:13:24.404Z,98966.45
2022-10-19T17:15:56.264Z,98967.56
2022-10-19T17:18:28.715Z,98972.30
2022-10-19T17:26:56.073Z,98971.64
2022-10-19T17:29:26.763Z,98973.44
2022-10-19T17:31:57.566Z,98970.66
2022-10-19T17:34:28.768Z,98972.55
2022-10-19T17:37:00.385Z,98972.21
2022-10-19T17:39:32.250Z,98969.78
2022-10-19T17:42:05.134Z,98973.23
2022-10-19T17:44:36.180Z,98974.40
2022-10-19T17:49:52.774Z,98979.96
2022-10-19T17:52:41.094Z,98983.52
2022-10-19T17:55:13.767Z,98987.58
2022-10-19T17:57:45.277Z,98986.05
2022-10-19T18:00:18.265Z,98983.48
2022-10-19T18:02:48.985Z,98980.78
2022-10-19T18:05:38.438Z,98979.14
2022-10-19T18:08:18.899Z,98980.10
2022-10-19T18:10:53.251Z,98977.55
2022-10-19T18:13:24.548Z,98970.85
2022-10-19T18:16:03.647Z,98968.67
2022-10-19T18:18:37.725Z,98971.17
2022-10-19T18:21:16.744Z,98971.71
2022-10-19T18:23:48.637Z,98971.73
2022-10-19T18:26:21.980Z,98966.04
2022-10-19T18:28:54.414Z,98961.36
2022-10-19T18:31:29.208Z,98962.41
2022-10-19T18:34:02.336Z,98966.23
2022-10-19T18:43:03.733Z,98947.22
2022-10-19T18:45:35.387Z,98942.24
2022-10-19T18:48:56.593Z,98940.73
2022-10-19T18:51:36.311Z,98945.80
2022-10-19T18:54:08.116Z,98943.28
2022-10-19T18:56:39.199Z,98939.34
2022-10-19T18:59:10.610Z,98934.48
2022-10-19T19:01:42.096Z,98929.12
2022-10-19T19:04:13.713Z,98927.06
2022-10-19T19:06:44.799Z,98926.92
2022-10-19T19:09:18.049Z,98925.91
2022-10-19T19:11:49.152Z,98924.70
2022-10-19T19:14:22.684Z,98919.34
2022-10-19T19:16:54.287Z,98918.81
2022-10-19T19:19:28.153Z,98917.77
2022-10-19T19:22:07.789Z,98913.48
2022-10-19T19:24:39.862Z,98914.20
2022-10-19T19:27:12.432Z,98907.98
2022-10-19T19:29:44.199Z,98906.11
2022-10-19T19:32:15.540Z,98912.48
2022-10-19T19:34:51.208Z,98915.11
2022-10-19T19:37:28.320Z,98916.16
2022-10-19T19:39:59.455Z,98913.75
2022-10-19T19:42:30.973Z,98911.02
2022-10-19T19:45:04.944Z,98907.88
2022-10-19T19:47:37.221Z,98906.67
2022-10-19T19:50:10.338Z,98910.83
2022-10-19T19:52:40.614Z,98912.88
2022-10-19T19:55:12.194Z,98915.49
2022-10-19T19:57:43.571Z,98912.94
2022-10-19T20:00:16.368Z,98910.17
2022-10-19T20:02:47.306Z,98909.29
2022-10-19T20:05:17.837Z,98906.48
2022-10-19T20:07:48.267Z,98904.36
2022-10-19T20:10:20.110Z,98906.60
2022-10-19T20:12:54.247Z,98910.09
2022-10-19T20:15:41.652Z,98913.18
2022-10-19T20:18:13.109Z,98909.91
2022-10-19T20:20:45.481Z,98914.27
2022-10-19T20:23:16.213Z,98911.86
2022-10-19T20:25:47.154Z,98910.44
2022-10-19T20:28:18.188Z,98909.88
2022-10-19T20:30:49.771Z,98912.96
2022-10-19T20:33:25.800Z,98914.35
2022-10-19T20:35:59.059Z,98909.89
2022-10-19T20:38:43.044Z,98906.12
2022-10-19T20:41:14.099Z,98898.21
2022-10-19T20:43:49.013Z,98896.86
2022-10-19T20:46:24.868Z,98902.09
2022-10-19T20:48:57.224Z,98903.52
2022-10-19T20:51:31.852Z,98899.23
2022-10-19T20:54:06.381Z,98903.73
2022-10-19T20:56:42.639Z,98900.98
2022-10-19T20:59:20.767Z,98897.38
2022-10-19T21:01:57.831Z,98893.93
2022-10-19T21:04:41.077Z,98892.87
2022-10-19T21:10:00.438Z,98894.56
2022-10-19T21:12:31.075Z,98890.21
2022-10-19T21:15:01.429Z,98889.52
2022-10-19T21:20:08.880Z,98889.65
2022-10-19T21:22:41.363Z,98887.58
2022-10-19T21:25:12.663Z,98881.70
2022-10-19T21:27:43.062Z,98877.89
2022-10-19T21:30:14.077Z,98878.94
2022-10-19T21:32:44.473Z,98871.86
2022-10-19T21:35:15.192Z,98875.49
2022-10-19T21:37:45.589Z,98871.14
2022-10-19T21:40:16.305Z,98874.73
2022-10-19T21:42:46.676Z,98871.77
2022-10-19T21:45:29.853Z,98871.59
2022-10-19T21:48:01.142Z,98872.79
2022-10-19T21:50:31.643Z,98874.86
2022-10-19T21:53:02.800Z,98876.21
2022-10-19T21:55:37.159Z,98879.98
2022-10-19T21:58:07.789Z,98875.77
2022-10-19T22:00:38.237Z,98872.30
2022-10-19T22:03:08.773Z,98870.58
2022-10-19T22:05:39.546Z,98866.79
2022-10-19T22:08:10.001Z,98861.25
2022-10-19T22:10:41.635Z,98856.80
2022-10-19T22:13:13.342Z,98857.90
2022-10-19T22:15:44.576Z,98855.56
2022-10-19T22:18:18.048Z,98854.23
2022-10-19T22:20:52.504Z,98854.98
2022-10-19T22:28:17.575Z,98852.14
2022-10-19T22:30:55.600Z,98846.17
2022-10-19T22:33:30.322Z,98847.27
2022-10-19T22:36:06.175Z,98843.54
2022-10-19T22:38:39.411Z,98840.16
2022-10-19T22:41:13.293Z,98841.45
2022-10-19T22:43:44.978Z,98841.53
2022-10-19T22:46:16.346Z,98841.75
2022-10-19T22:48:46.849Z,98839.72
2022-10-19T22:51:17.549Z,98831.10
2022-10-19T22:53:48.564Z,98819.91
2022-10-19T22:56:19.528Z,98818.23
2022-10-19T22:58:50.454Z,98818.09
2022-10-19T23:01:28.298Z,98818.99
2022-10-19T23:04:06.437Z,98821.62
2022-10-19T23:06:37.669Z,98824.60
2022-10-19T23:09:08.710Z,98818.23
2022-10-19T23:11:39.025Z,98811.86
2022-10-19T23:14:09.388Z,98810.15
2022-10-19T23:16:39.732Z,98806.88
2022-10-19T23:19:10.116Z,98802.03
2022-10-19T23:21:40.526Z,98793.91
2022-10-19T23:24:13.861Z,98790.80
2022-10-19T23:26:44.270Z,98786.61
2022-10-19T23:29:15.651Z,98783.14
2022-10-19T23:31:45.992Z,98780.05
2022-10-19T23:34:16.402Z,98779.73
2022-10-19T23:36:46.773Z,98780.28
2022-10-19T23:39:17.061Z,98775.27
2022-10-19T23:41:47.458Z,98773.73
2022-10-19T23:44:17.976Z,98770.27
2022-10-19T23:46:48.368Z,98771.15
2022-10-19T23:49:18.853Z,98767.73
2022-10-19T23:51:49.238Z,98771.36
2022-10-19T23:54:19.690Z,98770.00
2022-10-19T23:56:50.131Z,98768.13
2022-10-19T23:59:20.706Z,98763.48
